Raymond, New Hampshire
Current Conditions -  °F | °C
As of 10:53 PM on Tuesday 27 Jan 2015 (Local Time) from KMHT Reporting Station
Light Snow Light Snow  
Wind Chill: -3°   Ceiling: 4400
Heat Index: 12°   Visibility: 4mi
Dew Point:   Wind: 14mph
Humidity: 70%   Direction: 330°NNW
Pressure: 29.66"   Gusts: 30mph
Location:  43.04°N, 71.18°W
Report Text: KMHT 280353Z 33012G26KT 4SM -SN BLSN OVC044 M11/M16 A2966 RMK AO2 PK WND 34026/0347 SLP067 P0000 T11111156
Loading
Personal Weather Stations






























Interactive Weather Map New forecast layout! Learn more

10-Day Weather Forecast

Advertisements
Track Severe Weather on mobile